createdAt,value
2023-03-26T00:01:58.728Z,7.80
2023-03-26T00:04:42.374Z,7.80
2023-03-26T00:07:22.299Z,7.90
2023-03-26T00:09:56.099Z,7.90
2023-03-26T00:12:25.990Z,7.90
2023-03-26T00:14:57.938Z,7.80
2023-03-26T00:17:29.104Z,7.90
2023-03-26T00:19:59.923Z,7.80
2023-03-26T00:22:31.575Z,7.90
2023-03-26T00:25:02.957Z,7.80
2023-03-26T00:27:34.136Z,7.80
2023-03-26T00:30:05.208Z,7.80
2023-03-26T00:32:37.615Z,7.90
2023-03-26T00:35:13.354Z,7.90
2023-03-26T00:37:46.185Z,7.90
2023-03-26T00:40:18.124Z,7.90
2023-03-26T00:42:48.395Z,7.90
2023-03-26T00:45:22.142Z,7.80
2023-03-26T00:47:52.804Z,7.80
2023-03-26T00:50:23.650Z,7.80
2023-03-26T00:52:56.518Z,7.80
2023-03-26T00:55:26.894Z,7.70
2023-03-26T00:57:57.865Z,7.70
2023-03-26T01:00:45.693Z,7.70
2023-03-26T01:03:26.902Z,7.50
2023-03-26T01:06:04.950Z,7.60
2023-03-26T01:08:41.956Z,7.60
2023-03-26T01:11:15.991Z,7.60
2023-03-26T01:13:53.795Z,7.50
2023-03-26T01:16:32.284Z,7.40
2023-03-26T01:19:02.522Z,7.40
2023-03-26T01:21:34.671Z,7.40
2023-03-26T01:24:05.264Z,7.30
2023-03-26T01:27:11.361Z,7.30
2023-03-26T01:29:45.655Z,7.30
2023-03-26T01:32:46.553Z,7.20
2023-03-26T01:35:26.491Z,7.20
2023-03-26T01:38:10.687Z,7.20
2023-03-26T01:40:47.217Z,7.20
2023-03-26T01:43:23.914Z,7.20
2023-03-26T01:45:55.934Z,7.20
2023-03-26T01:48:32.554Z,7.20
2023-03-26T01:51:06.428Z,7.20
2023-03-26T01:53:39.474Z,7.20
2023-03-26T01:56:18.363Z,7.10
2023-03-26T01:59:02.953Z,7.10
2023-03-26T02:01:38.927Z,7.10
2023-03-26T02:04:19.531Z,7.10
2023-03-26T02:06:52.788Z,7.10
2023-03-26T02:09:28.995Z,7.00
2023-03-26T02:12:04.811Z,6.90
2023-03-26T02:14:36.499Z,6.90
2023-03-26T02:17:10.160Z,6.80
2023-03-26T02:19:42.145Z,6.80
2023-03-26T02:22:15.930Z,6.80
2023-03-26T02:24:46.573Z,6.70
2023-03-26T02:27:18.980Z,6.70
2023-03-26T02:29:47.918Z,6.70
2023-03-26T02:32:19.426Z,6.70
2023-03-26T02:34:51.391Z,6.70
2023-03-26T02:37:20.227Z,6.70
2023-03-26T02:39:50.513Z,6.60
2023-03-26T02:42:21.965Z,6.60
2023-03-26T02:44:50.435Z,6.60
2023-03-26T02:47:21.118Z,6.60
2023-03-26T02:49:52.762Z,6.50
2023-03-26T02:52:23.185Z,6.40
2023-03-26T02:54:53.666Z,6.50
2023-03-26T02:57:25.531Z,6.50
2023-03-26T02:59:58.171Z,6.40
2023-03-26T03:02:29.704Z,6.40
2023-03-26T03:05:01.843Z,6.30
2023-03-26T03:07:32.312Z,6.20
2023-03-26T03:10:02.702Z,6.10
2023-03-26T03:12:35.000Z,6.10
2023-03-26T03:15:05.255Z,6.00
2023-03-26T03:17:35.460Z,5.90
2023-03-26T03:20:09.327Z,5.90
2023-03-26T03:22:39.644Z,5.80
2023-03-26T03:25:14.526Z,5.70
2023-03-26T03:27:46.335Z,5.70
2023-03-26T03:30:15.436Z,5.70
2023-03-26T03:32:48.391Z,5.60
2023-03-26T03:35:19.692Z,5.70
2023-03-26T03:37:49.888Z,5.90
2023-03-26T03:40:21.243Z,5.80
2023-03-26T03:42:53.257Z,5.70
2023-03-26T03:45:23.348Z,5.70
2023-03-26T03:47:54.212Z,5.90
2023-03-26T03:50:24.493Z,6.00
2023-03-26T03:53:01.609Z,6.00
2023-03-26T03:55:31.661Z,6.00
2023-03-26T03:58:01.585Z,6.00
2023-03-26T04:00:32.436Z,6.10
2023-03-26T04:03:06.640Z,6.00
2023-03-26T04:05:37.057Z,5.90
2023-03-26T04:08:08.890Z,5.90
2023-03-26T04:10:44.055Z,5.80
2023-03-26T04:13:16.274Z,5.80
2023-03-26T04:15:48.060Z,5.70
2023-03-26T04:18:16.750Z,5.60
2023-03-26T04:20:48.195Z,5.60
2023-03-26T04:23:22.509Z,5.60
2023-03-26T04:25:55.164Z,5.70
2023-03-26T04:28:31.314Z,5.70
2023-03-26T04:31:04.930Z,5.60
2023-03-26T04:33:36.204Z,5.60
2023-03-26T04:36:07.470Z,5.60
2023-03-26T04:38:42.188Z,5.50
2023-03-26T04:41:13.626Z,5.50
2023-03-26T04:43:47.307Z,5.60
2023-03-26T04:46:21.848Z,5.50
2023-03-26T04:48:52.815Z,5.50
2023-03-26T04:51:27.252Z,5.70
2023-03-26T04:54:01.158Z,5.90
2023-03-26T04:56:42.673Z,6.10
2023-03-26T04:59:18.773Z,6.10
2023-03-26T05:01:49.175Z,6.10
2023-03-26T05:04:22.128Z,6.10
2023-03-26T05:06:58.092Z,6.20
2023-03-26T05:09:26.620Z,6.40
2023-03-26T05:11:55.065Z,6.50
2023-03-26T05:14:26.635Z,6.50
2023-03-26T05:16:57.280Z,6.60
2023-03-26T05:19:27.420Z,6.60
2023-03-26T05:21:57.646Z,6.70
2023-03-26T05:24:30.499Z,6.60
2023-03-26T05:27:02.741Z,6.60
2023-03-26T05:29:34.078Z,6.60
2023-03-26T05:32:04.336Z,6.60
2023-03-26T05:34:34.362Z,6.40
2023-03-26T05:37:04.930Z,6.40
2023-03-26T05:39:33.218Z,6.30
2023-03-26T05:42:03.505Z,6.30
2023-03-26T05:44:35.151Z,6.20
2023-03-26T05:47:05.252Z,6.20
2023-03-26T05:49:35.359Z,6.20
2023-03-26T05:52:05.538Z,6.10
2023-03-26T05:54:35.744Z,6.10
2023-03-26T05:57:07.816Z,6.30
2023-03-26T05:59:39.567Z,6.40
2023-03-26T06:02:13.529Z,6.50
2023-03-26T06:04:46.028Z,6.50
2023-03-26T06:07:16.862Z,6.70
2023-03-26T06:09:46.946Z,6.70
2023-03-26T06:12:16.218Z,6.90
2023-03-26T06:14:48.236Z,7.00
2023-03-26T06:17:19.016Z,7.10
2023-03-26T06:19:55.254Z,7.10
2023-03-26T06:22:27.617Z,7.10
2023-03-26T06:24:57.675Z,7.10
2023-03-26T06:27:28.007Z,7.10
2023-03-26T06:29:57.755Z,7.10
2023-03-26T06:32:27.849Z,7.00
2023-03-26T06:34:58.395Z,6.90
2023-03-26T06:37:28.359Z,7.00
2023-03-26T06:40:01.841Z,7.10
2023-03-26T06:43:08.698Z,7.10
2023-03-26T06:45:24.151Z,7.10
2023-03-26T06:47:55.823Z,7.10
2023-03-26T06:50:25.639Z,7.10
2023-03-26T06:52:57.102Z,7.20
2023-03-26T06:55:26.149Z,7.20
2023-03-26T06:57:58.274Z,7.30
2023-03-26T07:00:29.496Z,7.30
2023-03-26T07:02:59.670Z,7.30
2023-03-26T07:05:33.607Z,7.30
2023-03-26T07:08:04.122Z,7.30
2023-03-26T07:10:32.571Z,7.30
2023-03-26T07:13:05.003Z,7.40
2023-03-26T07:15:35.177Z,7.30
2023-03-26T07:18:03.665Z,7.40
2023-03-26T07:20:35.807Z,7.50
2023-03-26T07:23:07.522Z,7.50
2023-03-26T07:25:39.701Z,7.60
2023-03-26T07:28:14.786Z,7.60
2023-03-26T07:31:00.880Z,7.60
2023-03-26T07:33:37.848Z,7.60
2023-03-26T07:36:19.076Z,7.70
2023-03-26T07:39:03.849Z,7.70
2023-03-26T07:41:38.280Z,7.70
2023-03-26T07:44:35.716Z,7.70
2023-03-26T07:47:19.904Z,7.80
2023-03-26T07:49:51.815Z,7.80
2023-03-26T07:52:20.610Z,7.80
2023-03-26T07:54:51.906Z,7.80
2023-03-26T07:57:33.510Z,7.80
2023-03-26T08:00:12.424Z,7.80
2023-03-26T08:03:13.989Z,7.80
2023-03-26T08:05:49.284Z,7.80
2023-03-26T08:08:27.835Z,7.80
2023-03-26T08:11:11.706Z,7.80
2023-03-26T08:13:53.244Z,7.70
2023-03-26T08:16:30.197Z,7.60
2023-03-26T08:19:08.134Z,7.60
2023-03-26T08:21:41.355Z,7.60
2023-03-26T08:24:19.474Z,7.60
2023-03-26T08:26:55.237Z,7.50
2023-03-26T08:29:36.100Z,7.60
2023-03-26T08:32:11.139Z,7.50
2023-03-26T08:34:42.626Z,7.50
2023-03-26T08:37:26.781Z,7.50
2023-03-26T08:39:57.180Z,7.60
2023-03-26T08:42:59.062Z,7.60
2023-03-26T08:46:04.283Z,7.60
2023-03-26T08:49:17.854Z,7.70
2023-03-26T08:52:25.620Z,7.80
2023-03-26T08:55:27.286Z,7.90
2023-03-26T08:58:28.551Z,8.00
2023-03-26T09:01:26.541Z,8.00
2023-03-26T09:04:41.863Z,8.20
2023-03-26T09:07:46.831Z,8.10
2023-03-26T09:10:47.283Z,8.00
2023-03-26T09:13:54.541Z,7.90
2023-03-26T09:16:57.646Z,7.80
2023-03-26T09:19:56.727Z,7.80
2023-03-26T09:22:49.878Z,7.90
2023-03-26T09:25:57.261Z,7.90
2023-03-26T09:29:04.872Z,8.00
2023-03-26T09:32:07.905Z,7.80
2023-03-26T09:34:58.867Z,7.80
2023-03-26T09:37:56.828Z,7.80
2023-03-26T09:40:37.380Z,7.80
2023-03-26T09:43:37.949Z,7.80
2023-03-26T09:46:22.632Z,8.00
2023-03-26T09:49:23.042Z,8.00
2023-03-26T09:52:38.036Z,7.80
2023-03-26T09:55:44.170Z,7.80
2023-03-26T09:58:33.937Z,7.80
2023-03-26T10:01:11.584Z,7.70
2023-03-26T10:03:55.972Z,7.70
2023-03-26T10:06:52.840Z,7.70
2023-03-26T10:09:48.448Z,7.80
2023-03-26T10:12:29.084Z,7.80
2023-03-26T10:15:13.067Z,7.90
2023-03-26T10:17:53.659Z,7.80
2023-03-26T10:20:40.905Z,7.80
2023-03-26T10:23:49.231Z,7.70
2023-03-26T10:27:08.455Z,7.70
2023-03-26T10:30:18.012Z,7.70
2023-03-26T10:32:57.487Z,7.70
2023-03-26T10:35:45.318Z,7.70
2023-03-26T10:38:41.268Z,7.80
2023-03-26T10:41:24.104Z,7.90
2023-03-26T10:44:22.076Z,8.00
2023-03-26T10:47:09.589Z,8.10
2023-03-26T10:50:22.909Z,8.10
2023-03-26T10:53:05.237Z,8.20
2023-03-26T10:55:42.075Z,8.00
2023-03-26T10:58:24.634Z,7.80
2023-03-26T11:01:06.445Z,7.80
2023-03-26T11:03:59.140Z,7.90
2023-03-26T11:06:43.340Z,8.20
2023-03-26T11:09:24.656Z,8.40
2023-03-26T11:12:03.386Z,8.40
2023-03-26T11:15:14.900Z,8.50
2023-03-26T11:18:03.684Z,8.60
2023-03-26T11:20:52.228Z,8.80
2023-03-26T11:23:37.756Z,8.70
2023-03-26T11:26:19.673Z,8.80
2023-03-26T11:29:31.357Z,9.20
2023-03-26T11:32:13.045Z,9.30
2023-03-26T11:35:00.564Z,9.90
2023-03-26T11:37:39.064Z,10.00
2023-03-26T11:40:17.611Z,10.20
2023-03-26T11:42:58.195Z,10.20
2023-03-26T11:45:36.883Z,10.20
2023-03-26T11:48:14.899Z,10.10
2023-03-26T11:50:48.825Z,10.10
2023-03-26T11:53:24.753Z,10.10
2023-03-26T11:56:01.246Z,9.80
2023-03-26T11:58:39.186Z,9.90
2023-03-26T12:01:20.378Z,10.00
2023-03-26T12:04:07.318Z,9.70
2023-03-26T12:06:37.905Z,9.30
2023-03-26T12:09:17.766Z,9.20
2023-03-26T12:11:54.364Z,9.00
2023-03-26T12:14:33.406Z,8.90
2023-03-26T12:17:14.093Z,9.00
2023-03-26T12:19:51.793Z,9.00
2023-03-26T12:22:41.132Z,9.10
2023-03-26T12:25:25.603Z,9.30
2023-03-26T12:28:09.377Z,9.70
2023-03-26T12:30:48.280Z,10.40
2023-03-26T12:33:26.364Z,10.90
2023-03-26T12:36:04.356Z,11.10
2023-03-26T12:38:42.748Z,11.50
2023-03-26T12:44:41.738Z,11.60
2023-03-26T12:44:55.981Z,11.00
2023-03-26T12:47:59.994Z,10.30
2023-03-26T12:50:16.843Z,10.00
2023-03-26T12:53:15.143Z,9.70
2023-03-26T12:55:59.091Z,9.50
2023-03-26T12:58:55.384Z,9.20
2023-03-26T13:01:40.839Z,9.10
2023-03-26T13:04:41.455Z,9.00
2023-03-26T13:07:23.829Z,8.90
2023-03-26T13:10:24.019Z,8.80
2023-03-26T13:12:58.737Z,9.00
2023-03-26T13:15:34.377Z,9.50
2023-03-26T13:18:26.126Z,9.60
2023-03-26T13:21:07.514Z,9.80
2023-03-26T13:23:51.265Z,9.70
2023-03-26T13:26:40.975Z,9.70
2023-03-26T13:29:25.679Z,10.10
2023-03-26T13:32:12.760Z,10.70
2023-03-26T13:34:57.156Z,11.00
2023-03-26T13:37:35.384Z,11.60
2023-03-26T13:40:20.182Z,11.60
2023-03-26T13:43:08.939Z,11.40
2023-03-26T13:45:53.210Z,11.60
2023-03-26T13:48:46.295Z,11.70
2023-03-26T13:51:42.269Z,11.90
2023-03-26T13:54:27.809Z,11.70
2023-03-26T13:57:06.274Z,11.50
2023-03-26T13:59:42.825Z,11.20
2023-03-26T14:02:36.195Z,11.10
2023-03-26T14:05:13.554Z,11.20
2023-03-26T14:07:56.529Z,11.00
2023-03-26T14:10:32.744Z,10.80
2023-03-26T14:13:05.970Z,10.70
2023-03-26T14:15:42.909Z,10.90
2023-03-26T14:18:34.882Z,10.60
2023-03-26T14:21:45.568Z,10.30
2023-03-26T14:24:49.207Z,10.20
2023-03-26T14:27:53.677Z,10.00
2023-03-26T14:30:44.932Z,9.90
2023-03-26T14:33:38.838Z,10.10
2023-03-26T14:36:18.118Z,9.90
2023-03-26T14:39:15.189Z,9.60
2023-03-26T14:41:55.932Z,9.30
2023-03-26T14:45:26.452Z,9.20
2023-03-26T14:48:37.661Z,9.10
2023-03-26T14:51:18.793Z,9.30
2023-03-26T14:53:52.885Z,9.40
2023-03-26T14:57:04.386Z,9.90
2023-03-26T15:00:21.137Z,10.20
2023-03-26T15:03:48.843Z,10.40
2023-03-26T15:06:59.276Z,10.60
2023-03-26T15:10:15.583Z,10.40
2023-03-26T15:13:03.554Z,10.40
2023-03-26T15:16:02.001Z,10.40
2023-03-26T15:19:14.006Z,10.30
2023-03-26T15:22:25.929Z,10.40
2023-03-26T15:25:42.463Z,10.40
2023-03-26T15:28:45.922Z,10.60
2023-03-26T15:31:43.352Z,10.80
2023-03-26T15:34:42.473Z,10.90
2023-03-26T15:38:10.898Z,11.20
2023-03-26T15:41:12.614Z,11.40
2023-03-26T15:44:27.082Z,11.40
2023-03-26T15:47:03.705Z,11.40
2023-03-26T15:49:43.543Z,11.10
2023-03-26T15:52:28.165Z,10.90
2023-03-26T15:55:08.749Z,11.00
2023-03-26T15:57:44.714Z,10.80
2023-03-26T16:00:31.157Z,10.60
2023-03-26T16:03:23.709Z,10.40
2023-03-26T16:06:32.414Z,10.40
2023-03-26T16:09:34.996Z,10.30
2023-03-26T16:12:25.986Z,10.30
2023-03-26T16:15:30.812Z,10.30
2023-03-26T16:18:32.604Z,10.30
2023-03-26T16:21:34.502Z,10.40
2023-03-26T16:24:25.248Z,10.30
2023-03-26T16:27:23.474Z,9.50
2023-03-26T16:30:30.410Z,8.80
2023-03-26T16:33:17.496Z,8.20
2023-03-26T16:36:29.375Z,7.60
2023-03-26T16:39:21.082Z,7.20
2023-03-26T16:42:29.208Z,7.10
2023-03-26T16:45:25.156Z,7.00
2023-03-26T16:48:08.467Z,6.90
2023-03-26T16:50:55.392Z,6.70
2023-03-26T16:53:44.353Z,6.70
2023-03-26T16:56:28.445Z,6.70
2023-03-26T16:59:10.745Z,6.70
2023-03-26T17:01:56.758Z,6.70
2023-03-26T17:04:35.097Z,6.50
2023-03-26T17:07:15.156Z,6.60
2023-03-26T17:09:56.938Z,6.60
2023-03-26T17:12:37.184Z,6.70
2023-03-26T17:15:43.464Z,6.60
2023-03-26T17:18:36.710Z,6.70
2023-03-26T17:21:21.189Z,6.90
2023-03-26T17:24:07.898Z,6.90
2023-03-26T17:26:59.762Z,7.00
2023-03-26T17:29:52.822Z,6.80
2023-03-26T17:32:30.090Z,6.80
2023-03-26T17:35:07.575Z,6.80
2023-03-26T17:37:52.270Z,6.80
2023-03-26T17:40:56.227Z,6.80
2023-03-26T17:43:59.070Z,6.90
2023-03-26T17:46:37.854Z,6.90
2023-03-26T17:49:14.917Z,6.90
2023-03-26T17:51:58.260Z,7.00
2023-03-26T17:54:33.258Z,7.00
2023-03-26T17:57:11.362Z,7.10
2023-03-26T17:59:55.056Z,7.00
2023-03-26T18:02:42.905Z,7.00
2023-03-26T18:05:16.848Z,7.00
2023-03-26T18:08:19.533Z,7.00
2023-03-26T18:11:37.158Z,6.90
2023-03-26T18:14:33.986Z,6.90
2023-03-26T18:17:10.802Z,7.00
2023-03-26T18:20:00.696Z,7.00
2023-03-26T18:22:42.154Z,7.00
2023-03-26T18:25:30.533Z,6.90
2023-03-26T18:28:02.623Z,6.90
2023-03-26T18:30:31.960Z,6.90
2023-03-26T18:33:19.325Z,6.90
2023-03-26T18:36:01.274Z,7.00
2023-03-26T18:38:40.605Z,7.00
2023-03-26T18:41:27.484Z,6.90
2023-03-26T18:44:05.381Z,7.00
2023-03-26T18:46:37.170Z,6.90
2023-03-26T18:49:15.366Z,6.90
2023-03-26T18:51:57.266Z,6.90
2023-03-26T18:54:48.888Z,7.00
2023-03-26T18:57:27.372Z,7.00
2023-03-26T19:00:09.810Z,7.00
2023-03-26T19:02:42.081Z,7.00
2023-03-26T19:05:32.384Z,7.00
2023-03-26T19:08:06.925Z,6.90
2023-03-26T19:10:46.749Z,6.90
2023-03-26T19:13:26.734Z,6.90
2023-03-26T19:16:15.616Z,6.90
2023-03-26T19:18:52.322Z,6.90
2023-03-26T19:21:27.319Z,6.90
2023-03-26T19:24:02.295Z,6.90
2023-03-26T19:26:33.638Z,6.90
2023-03-26T19:29:07.919Z,6.90
2023-03-26T19:31:41.758Z,6.90
2023-03-26T19:34:33.730Z,6.80
2023-03-26T19:37:22.739Z,6.90
2023-03-26T19:40:05.857Z,6.80
2023-03-26T19:42:42.845Z,6.80
2023-03-26T19:45:19.671Z,6.80
2023-03-26T19:48:03.981Z,6.80
2023-03-26T19:50:57.442Z,6.80
2023-03-26T19:53:35.616Z,6.80
2023-03-26T19:56:18.973Z,6.80
2023-03-26T19:58:53.441Z,6.80
2023-03-26T20:01:41.794Z,6.80
2023-03-26T20:04:21.120Z,6.80
2023-03-26T20:06:53.068Z,6.80
2023-03-26T20:09:35.033Z,6.70
2023-03-26T20:12:09.052Z,6.80
2023-03-26T20:14:47.202Z,6.80
2023-03-26T20:17:31.165Z,6.80
2023-03-26T20:20:15.034Z,6.80
2023-03-26T20:22:48.513Z,6.70
2023-03-26T20:25:25.201Z,6.70
2023-03-26T20:27:58.621Z,6.70
2023-03-26T20:30:37.754Z,6.80
2023-03-26T20:33:16.759Z,6.80
2023-03-26T20:35:53.911Z,6.80
2023-03-26T20:38:39.247Z,6.80
2023-03-26T20:41:22.010Z,7.00
2023-03-26T20:43:53.437Z,7.00
2023-03-26T20:46:30.980Z,7.20
2023-03-26T20:49:10.061Z,7.20
2023-03-26T20:51:43.013Z,7.20
2023-03-26T20:54:19.250Z,7.20
2023-03-26T20:56:55.177Z,7.30
2023-03-26T20:59:30.645Z,7.20
2023-03-26T21:02:01.679Z,7.30
2023-03-26T21:04:30.635Z,7.20
2023-03-26T21:07:14.989Z,7.20
2023-03-26T21:09:58.133Z,7.20
2023-03-26T21:12:36.217Z,7.20
2023-03-26T21:15:16.713Z,7.30
2023-03-26T21:17:53.775Z,7.30
2023-03-26T21:20:29.450Z,7.20
2023-03-26T21:23:10.476Z,7.20
2023-03-26T21:25:45.550Z,7.20
2023-03-26T21:28:41.392Z,7.10
2023-03-26T21:31:15.483Z,7.10
2023-03-26T21:33:48.009Z,7.10
2023-03-26T21:36:35.628Z,7.00
2023-03-26T21:39:06.667Z,7.00
2023-03-26T21:41:48.875Z,6.90
2023-03-26T21:44:38.006Z,6.90
2023-03-26T21:47:11.760Z,6.90
2023-03-26T21:49:42.743Z,6.90
2023-03-26T21:52:15.297Z,6.90
2023-03-26T21:54:49.894Z,6.80
2023-03-26T21:57:34.675Z,6.80
2023-03-26T22:00:14.503Z,6.80
2023-03-26T22:02:58.775Z,6.70
2023-03-26T22:05:37.547Z,6.70
2023-03-26T22:08:22.109Z,6.70
2023-03-26T22:10:52.633Z,6.70
2023-03-26T22:13:28.830Z,6.70
2023-03-26T22:15:59.213Z,6.60
2023-03-26T22:18:30.385Z,6.60
2023-03-26T22:21:03.344Z,6.50
2023-03-26T22:23:36.697Z,6.40
2023-03-26T22:26:08.354Z,6.30
2023-03-26T22:28:41.680Z,6.30
2023-03-26T22:31:16.468Z,6.20
2023-03-26T22:33:47.410Z,6.10
2023-03-26T22:36:22.178Z,6.00
2023-03-26T22:38:55.291Z,6.00
2023-03-26T22:41:26.108Z,5.90
2023-03-26T22:44:09.318Z,5.90
2023-03-26T22:46:47.531Z,5.80
2023-03-26T22:49:17.984Z,5.80
2023-03-26T22:51:47.056Z,5.70
2023-03-26T22:54:20.000Z,5.70
2023-03-26T22:56:52.367Z,5.60
2023-03-26T22:59:22.816Z,5.50
2023-03-26T23:01:53.424Z,5.40
2023-03-26T23:04:31.636Z,5.40
2023-03-26T23:07:02.909Z,5.40
2023-03-26T23:09:31.653Z,5.30
2023-03-26T23:12:03.815Z,5.30
2023-03-26T23:14:34.472Z,5.30
2023-03-26T23:17:05.904Z,5.30
2023-03-26T23:19:39.340Z,5.30
2023-03-26T23:22:11.983Z,5.20
2023-03-26T23:24:40.484Z,5.20
2023-03-26T23:27:10.920Z,5.20
2023-03-26T23:29:39.329Z,5.20
2023-03-26T23:32:24.278Z,5.20
2023-03-26T23:34:56.002Z,5.20
2023-03-26T23:37:26.560Z,5.20
2023-03-26T23:39:56.646Z,5.20
2023-03-26T23:42:30.233Z,5.20
2023-03-26T23:45:02.161Z,5.30
2023-03-26T23:47:34.970Z,5.30
2023-03-26T23:50:06.516Z,5.30
2023-03-26T23:52:41.844Z,5.20
2023-03-26T23:55:13.783Z,5.20
2023-03-26T23:57:47.925Z,5.10
